MWCR Airport Information

Runway Information
Runway 08 Length 7021 ft width 148 ft
Elevation 8 ft Threshold 0 ft Heading 76
Runway 26 Length 7021 ft Width 148 ft
Elevation 6 ft Threshold 400 ft Heading 256
Airport Frequencies
Type A/D Name GRAND CAYM Frequency 120.2 MHZ
Type ATIS Name ATIS Frequency 132.35 MHZ
Type CNTR Name KINGSTON C Frequency 128.1 MHZ
Type GND Name GND Frequency 121.9 MHZ
Type TWR Name TWR Frequency 118 MHZ
Airport Navaids
Type VOR-DME Name Grand Cayman Frequency 115600 KHZ
Type NDB Name Grand Cayman Frequency 344 KHZ
Airport Weather Information & NOTAM
ADDS - METARS form results

(1036 UTC 22 October 2021)
Data provider http://aviationweather.gov/metar/data/
 
Forecast for: MWCR (GRAND CAYMAN/OWN, KY)
Text: TAF MWCR 212300Z 2200/2224 11010KT 9999 FEW018
Forecast period: 0000 UTC 22 October 2021 to 0000 UTC 23 October 2021
Forecast type: FROM: standard forecast or significant change
Winds: from the ESE (110 degrees) at 12 MPH (10 knots; 5.1 m/s)
Visibility: 6 or more miles (10+ km)
Ceiling: at least 12,000 feet AGL
Clouds: few clouds at 1800 feet AGL
Weather: no significant weather forecast for this period
Text: TEMPO 2218/2223 9000 SHRA SCT014CB
Forecast period: 1800 to 2300 UTC 22 October 2021
Forecast type: TEMPORARY: The following changes expected for less than half the time period
Visibility: 6 miles (9 km)
Ceiling: at least 12,000 feet AGL
Clouds: scattered clouds at 1400 feet AGL
Weather: SHRA  (rain showers)